• Join FlightAware (Why Join?)
  • Login
  • US Flag 
10:08AM EDT


 

Airport Tracker/Info


-or-


 

Live Flight TrackerFlight Track Log ✈ QXE2633 ✈ 28-Aug-2013 ✈ KPDX - KSMF

Flight Track Log - Related Links

Times and Time Zones

All times are in EDT time to prevent confusion due to time zone crossing. See the QXE2633 flight status page for this flight to view local times or setup timezone preferences in your user account.

Time Position Orientation Groundspeed Altitude Reporting Facility
EDT Latitude Longitude Course Direction KTS MPH feet Rate Location/Type
05:44PM 45.0309 -122.5067 173° South  Level Estimated
05:45PM 44.9512 -122.4939 174° South  Level Estimated
05:46PM 44.8715 -122.4812 174° South  Level Estimated
05:47PM 44.7918 -122.4686 174° South  Level Estimated
05:48PM 44.7121 -122.4559 174° South  Level Estimated
05:49PM 44.6324 -122.4433 174° South  Level Estimated
05:50PM 44.5527 -122.4308 174° South  Level Estimated
05:51PM 44.4729 -122.4182 174° South  Level Estimated
05:52PM 44.3932 -122.4057 174° South  Level Estimated
05:53PM 44.3135 -122.3933 174° South  Level Estimated
05:54PM 44.2338 -122.3809 174° South  Level Estimated
05:55PM 44.1541 -122.3684 174° South  Level Estimated
05:56PM 44.0744 -122.3561 174° South  Level Estimated
05:57PM 43.9947 -122.3438 174° South  Level Estimated
05:58PM 43.9150 -122.3315 174° South  Level Estimated
05:59PM 43.8352 -122.3192 174° South  Level Estimated
06:00PM 43.7555 -122.3070 174° South  Level Estimated
06:01PM 43.6758 -122.2948 174° South  Level Estimated
06:02PM 43.5961 -122.2826 174° South  Level Estimated
06:03PM 43.5163 -122.2705 174° South  Level Estimated
06:04PM 43.4366 -122.2584 174° South  Level Estimated
06:05PM 43.3569 -122.2463 174° South  Level Estimated
06:06PM 43.2772 -122.2343 174° South  Level Estimated
06:07PM 43.1974 -122.2223 174° South  Level Estimated
06:08PM 43.1177 -122.2103 174° South  Level Estimated
06:09PM 43.0380 -122.1983 174° South  Level Estimated
06:10PM 42.9582 -122.1864 174° South  Level Estimated
06:11PM 42.8785 -122.1746 174° South  Level Estimated
06:12PM 42.7988 -122.1627 174° South  Level Estimated
06:13PM 42.7191 -122.1509 174° South  Level Estimated
06:14PM 42.6393 -122.1391 174° South  Level Estimated
06:15PM 42.5667 -122.1284 174° South  Level Estimated
06:16PM 42.4941 -122.1177 174° South  Level Estimated
06:17PM 42.4215 -122.1070 174° South  Level Estimated
06:18PM 42.3489 -122.0964 174° South  Level Estimated
06:19PM 42.2763 -122.0858 174° South  Level Estimated
06:20PM 42.2037 -122.0752 174° South  Level Estimated
06:21PM 42.1310 -122.0646 174° South  Level Estimated
06:22PM 42.0584 -122.0541 174° South  Level Estimated
06:23PM 41.9858 -122.0436 174° South  Level Estimated
06:24PM 41.9132 -122.0331 174° South  Level Estimated
06:25PM 41.8399 -122.0225 174° South  Level Estimated
06:26PM 41.7666 -122.0120 174° South  Level Estimated
06:27PM 41.6933 -122.0015 174° South  Level Estimated
06:28PM 41.6200 -121.9910 174° South  Level Estimated
06:29PM 41.5466 -121.9805 174° South  Level Estimated
06:30PM 41.4733 -121.9701 174° South  Level Estimated
06:31PM 41.4000 -121.9596 174° South  Level Estimated
06:32PM 41.3267 -121.9492 174° South  Level Estimated
06:33PM 41.2534 -121.9389 174° South  Level Estimated
06:34PM 41.1801 -121.9285 174° South  Level Estimated
06:35PM 41.1068 -121.9182 174° South  Level Estimated
06:36PM 41.0334 -121.9079 174° South  Level Estimated
06:37PM 40.9601 -121.8976 174° South  Level Estimated
06:38PM 40.8868 -121.8873 174° South  Level Estimated
06:39PM 40.8135 -121.8771 174° South  Level Estimated
06:40PM 40.7402 -121.8669 174° South  Level Estimated
06:41PM 40.6668 -121.8567 174° South  Level Estimated
06:42PM 40.5935 -121.8465 174° South  Level Estimated
06:43PM 40.5202 -121.8364 174° South  Level Estimated
06:44PM 40.4469 -121.8263 174° South  Level Estimated
06:45PM 40.3735 -121.8162 174° South  Level Estimated
06:46PM 40.3002 -121.8061 174° South  Level Estimated
06:47PM 40.2269 -121.7960 174° South  Level Estimated
06:48PM 40.1535 -121.7860 174° South  Level Estimated
06:49PM 40.0802 -121.7760 174° South  Level Estimated
06:50PM 40.0069 -121.7660 174° South  Level Estimated
06:51PM 39.9332 -121.7560 180° South  Level Estimated
06:52PM 39.8596 -121.7459 176° South  Level Estimated
06:53PM 39.7876 -121.7233 166° South  Level FlightAware Approximate
06:54PM 39.7177 -121.6925 161° South  Level FlightAware Approximate
06:55PM 39.6479 -121.6617 161° South  Level FlightAware Approximate
06:56PM 39.5701 -121.6333 180° South  Level FlightAware Approximate
06:57PM 39.4964 -121.6333 180° South  Level FlightAware Approximate
06:58PM 39.4228 -121.6273 176° South  Level FlightAware Approximate
06:59PM 39.3493 -121.6199 176° South  Level FlightAware Approximate
07:00PM 39.2757 -121.6167 180° South  Level FlightAware Approximate
07:01PM 39.2021 -121.6127 174° South  Level FlightAware Approximate
07:02PM 39.1287 -121.6036 174° South  Level FlightAware Approximate
07:03PM 39.0552 -121.5936 174° South  Level FlightAware Approximate
07:04PM 38.9818 -121.5833 180° South  Level FlightAware Approximate
07:05PM 38.9080 -121.5833 180° South  Level FlightAware Approximate
07:06PM 38.8342 -121.5833 180° South  Level FlightAware Approximate
07:07PM 38.7604 -121.5833 180° South  Level FlightAware Approximate
07:08PM 38.6954 -121.5908 180° South  Level Estimated
07:09PM 38.6954 -121.5908 180° South  Level Estimated
07:10PM 38.6954 -121.5908 180° South  Level Estimated
07:11PM 38.6954 -121.5908 180° South  Level Estimated
07:12PM 38.6954 -121.5908 180° South  Level Estimated
07:13PM 38.6954 -121.5908 180° South  Level Estimated
07:14PM 38.6954 -121.5908 180° South  Level Estimated
07:15PM 38.6954 -121.5908 180° South  Level Estimated
07:16PM 38.6954 -121.5908 180° South  Level Estimated
07:17PM 38.6954 -121.5908 180° South  Level Estimated
07:18PM 38.6954 -121.5908 180° South  Level Estimated
07:19PM 38.6954 -121.5908 180° South  Level Estimated
07:20PM 38.6954 -121.5908 180° South  Level Estimated
07:21PM 38.6954 -121.5908 180° South  Level Estimated
07:22PM 38.6954 -121.5908 180° South  Level Estimated
07:23PM 38.6954 -121.5908 180° South  Level Estimated
07:24PM 38.6954 -121.5908 180° South  Level Estimated
07:25PM 38.6954 -121.5908 180° South  Level Estimated
07:26PM 38.6954 -121.5908 180° South  Level Estimated
07:27PM 38.6954 -121.5908 180° South  Level Estimated